createdAt,value
2023-02-19T00:01:33.503Z,67.75
2023-02-19T00:04:02.918Z,67.73
2023-02-19T00:06:32.132Z,67.77
2023-02-19T00:08:59.086Z,67.73
2023-02-19T00:11:29.080Z,67.72
2023-02-19T00:13:57.748Z,67.73
2023-02-19T00:16:35.958Z,67.70
2023-02-19T00:19:05.952Z,67.70
2023-02-19T00:21:33.124Z,67.67
2023-02-19T00:24:02.413Z,67.61
2023-02-19T00:26:29.552Z,67.58
2023-02-19T00:28:57.303Z,67.59
2023-02-19T00:31:26.628Z,67.53
2023-02-19T00:33:56.592Z,67.52
2023-02-19T00:36:24.096Z,67.53
2023-02-19T00:38:51.698Z,67.52
2023-02-19T00:41:20.621Z,67.55
2023-02-19T00:43:53.344Z,67.52
2023-02-19T00:46:24.637Z,67.62
2023-02-19T00:48:52.640Z,67.66
2023-02-19T00:51:21.496Z,67.65
2023-02-19T00:53:49.657Z,67.66
2023-02-19T00:56:16.851Z,67.72
2023-02-19T00:58:44.028Z,67.74
2023-02-19T01:01:11.891Z,67.80
2023-02-19T01:03:39.564Z,67.81
2023-02-19T01:06:08.544Z,67.83
2023-02-19T01:08:35.926Z,67.87
2023-02-19T01:11:05.156Z,67.89
2023-02-19T01:13:33.055Z,67.90
2023-02-19T01:16:09.298Z,67.93
2023-02-19T01:18:36.743Z,67.91
2023-02-19T01:21:09.978Z,67.92
2023-02-19T01:23:37.169Z,67.95
2023-02-19T01:26:06.378Z,67.95
2023-02-19T01:28:33.492Z,67.92
2023-02-19T01:31:05.076Z,67.91
2023-02-19T01:33:33.761Z,67.89
2023-02-19T01:36:03.007Z,67.96
2023-02-19T01:38:29.829Z,68.00
2023-02-19T01:41:02.519Z,67.99
2023-02-19T01:43:29.512Z,68.01
2023-02-19T01:45:56.684Z,68.07
2023-02-19T01:48:37.947Z,68.02
2023-02-19T01:51:14.975Z,68.08
2023-02-19T01:53:49.795Z,68.08
2023-02-19T01:56:20.275Z,68.10
2023-02-19T01:58:47.231Z,68.14
2023-02-19T02:01:14.563Z,68.20
2023-02-19T02:03:47.168Z,68.21
2023-02-19T02:06:24.985Z,68.21
2023-02-19T02:09:13.654Z,68.25
2023-02-19T02:11:45.912Z,68.28
2023-02-19T02:14:13.163Z,68.30
2023-02-19T02:16:55.293Z,68.30
2023-02-19T02:19:28.233Z,68.28
2023-02-19T02:22:43.331Z,68.32
2023-02-19T02:25:48.679Z,68.36
2023-02-19T02:28:37.073Z,68.36
2023-02-19T02:31:10.406Z,68.37
2023-02-19T02:33:57.803Z,68.42
2023-02-19T02:36:31.240Z,68.47
2023-02-19T02:39:03.357Z,68.62
2023-02-19T02:41:33.394Z,68.70
2023-02-19T02:44:00.840Z,68.81
2023-02-19T02:46:35.472Z,68.86
2023-02-19T02:49:06.737Z,68.87
2023-02-19T02:51:41.405Z,68.99
2023-02-19T02:54:33.737Z,69.10
2023-02-19T02:57:02.206Z,69.17
2023-02-19T02:59:35.793Z,69.43
2023-02-19T03:02:14.375Z,69.42
2023-02-19T03:05:06.759Z,69.43
2023-02-19T03:08:00.534Z,69.53
2023-02-19T03:10:41.863Z,69.48
2023-02-19T03:13:34.333Z,69.66
2023-02-19T03:16:28.895Z,69.75
2023-02-19T03:19:18.090Z,69.89
2023-02-19T03:22:00.792Z,70.18
2023-02-19T03:24:54.617Z,70.11
2023-02-19T03:27:25.168Z,70.24
2023-02-19T03:29:57.354Z,70.42
2023-02-19T03:32:31.338Z,70.46
2023-02-19T03:35:06.568Z,70.53
2023-02-19T03:37:41.897Z,70.48
2023-02-19T03:40:09.162Z,70.65
2023-02-19T03:43:00.511Z,70.82
2023-02-19T03:45:45.806Z,70.71
2023-02-19T03:48:31.822Z,70.76
2023-02-19T03:51:03.628Z,70.64
2023-02-19T03:53:43.698Z,70.64
2023-02-19T03:56:21.628Z,70.74
2023-02-19T03:58:59.634Z,70.79
2023-02-19T04:01:47.851Z,70.90
2023-02-19T04:04:25.170Z,70.88
2023-02-19T04:06:57.160Z,70.95
2023-02-19T04:09:30.131Z,71.11
2023-02-19T04:11:59.854Z,71.14
2023-02-19T04:14:35.535Z,71.22
2023-02-19T04:17:11.268Z,71.19
2023-02-19T04:19:42.611Z,71.27
2023-02-19T04:22:11.270Z,71.38
2023-02-19T04:24:43.622Z,71.42
2023-02-19T04:27:11.053Z,71.54
2023-02-19T04:29:39.256Z,71.69
2023-02-19T04:32:06.673Z,71.76
2023-02-19T04:34:33.407Z,71.86
2023-02-19T04:37:00.369Z,72.06
2023-02-19T04:39:27.050Z,72.25
2023-02-19T04:41:53.756Z,72.27
2023-02-19T04:44:21.353Z,72.29
2023-02-19T04:46:48.124Z,72.46
2023-02-19T04:49:15.277Z,72.79
2023-02-19T04:51:42.527Z,72.84
2023-02-19T04:54:09.306Z,72.98
2023-02-19T04:56:35.967Z,73.09
2023-02-19T04:59:03.059Z,73.13
2023-02-19T05:01:29.806Z,73.11
2023-02-19T05:04:00.473Z,73.13
2023-02-19T05:06:27.800Z,73.13
2023-02-19T05:08:55.686Z,73.10
2023-02-19T05:11:23.846Z,73.16
2023-02-19T05:13:51.080Z,73.28
2023-02-19T05:16:18.400Z,73.22
2023-02-19T05:18:46.601Z,73.14
2023-02-19T05:21:14.574Z,73.15
2023-02-19T05:23:41.777Z,73.15
2023-02-19T05:26:20.865Z,73.05
2023-02-19T05:28:49.967Z,73.02
2023-02-19T05:31:17.520Z,73.06
2023-02-19T05:33:45.693Z,73.05
2023-02-19T05:36:14.247Z,73.20
2023-02-19T05:38:41.744Z,73.15
2023-02-19T05:41:20.688Z,73.28
2023-02-19T05:43:48.845Z,73.34
2023-02-19T05:46:18.151Z,73.51
2023-02-19T05:48:45.132Z,73.72
2023-02-19T05:51:14.374Z,73.63
2023-02-19T05:53:42.779Z,73.74
2023-02-19T05:56:40.179Z,73.64
2023-02-19T05:59:19.072Z,73.54
2023-02-19T06:01:46.133Z,73.60
2023-02-19T06:04:14.294Z,73.58
2023-02-19T06:06:41.877Z,73.62
2023-02-19T06:09:09.503Z,73.60
2023-02-19T06:11:37.338Z,73.52
2023-02-19T06:14:04.700Z,73.48
2023-02-19T06:16:33.682Z,73.42
2023-02-19T06:19:04.325Z,73.36
2023-02-19T06:21:30.981Z,73.35
2023-02-19T06:23:57.677Z,73.30
2023-02-19T06:26:25.081Z,73.22
2023-02-19T06:28:53.429Z,73.22
2023-02-19T06:31:22.229Z,73.16
2023-02-19T06:33:50.796Z,73.05
2023-02-19T06:36:20.463Z,72.95
2023-02-19T06:38:47.443Z,72.87
2023-02-19T06:41:14.920Z,72.79
2023-02-19T06:43:41.889Z,72.76
2023-02-19T06:46:10.895Z,72.78
2023-02-19T06:48:39.890Z,72.81
2023-02-19T06:51:06.773Z,72.85
2023-02-19T06:53:33.591Z,72.86
2023-02-19T06:56:06.315Z,73.04
2023-02-19T06:58:34.108Z,73.18
2023-02-19T07:01:01.507Z,73.22
2023-02-19T07:03:28.635Z,73.26
2023-02-19T07:05:55.484Z,73.28
2023-02-19T07:08:22.536Z,73.36
2023-02-19T07:10:58.834Z,73.41
2023-02-19T07:13:26.973Z,73.39
2023-02-19T07:16:01.871Z,73.45
2023-02-19T07:18:30.635Z,73.41
2023-02-19T07:21:09.705Z,73.52
2023-02-19T07:23:37.571Z,73.46
2023-02-19T07:26:05.120Z,73.51
2023-02-19T07:28:31.791Z,73.55
2023-02-19T07:31:03.482Z,73.61
2023-02-19T07:33:30.887Z,73.60
2023-02-19T07:35:57.682Z,73.53
2023-02-19T07:38:25.590Z,73.53
2023-02-19T07:40:53.057Z,73.45
2023-02-19T07:43:19.786Z,73.31
2023-02-19T07:45:47.074Z,73.22
2023-02-19T07:48:14.268Z,73.07
2023-02-19T07:50:41.578Z,73.04
2023-02-19T07:53:08.933Z,72.97
2023-02-19T07:55:35.583Z,72.89
2023-02-19T07:58:02.239Z,72.82
2023-02-19T08:00:29.233Z,72.62
2023-02-19T08:03:02.215Z,72.16
2023-02-19T08:05:31.355Z,72.02
2023-02-19T08:07:59.163Z,72.08
2023-02-19T08:11:02.305Z,71.78
2023-02-19T08:13:30.879Z,71.67
2023-02-19T08:16:16.341Z,71.59
2023-02-19T08:18:47.404Z,71.50
2023-02-19T08:21:14.340Z,71.32
2023-02-19T08:23:41.064Z,71.25
2023-02-19T08:26:09.849Z,71.28
2023-02-19T08:28:36.644Z,71.22
2023-02-19T08:31:06.232Z,70.94
2023-02-19T08:33:33.373Z,70.93
2023-02-19T08:36:08.765Z,70.65
2023-02-19T08:38:36.861Z,70.82
2023-02-19T08:41:11.281Z,70.81
2023-02-19T08:43:40.305Z,70.79
2023-02-19T08:46:10.176Z,70.88
2023-02-19T08:48:38.613Z,70.88
2023-02-19T08:51:09.994Z,70.88
2023-02-19T08:53:38.716Z,70.76
2023-02-19T08:56:09.094Z,70.72
2023-02-19T08:58:37.424Z,70.75
2023-02-19T09:01:10.276Z,70.66
2023-02-19T09:03:37.805Z,70.30
2023-02-19T09:06:05.225Z,70.13
2023-02-19T09:08:32.323Z,70.02
2023-02-19T09:11:02.597Z,69.74
2023-02-19T09:13:31.291Z,69.80
2023-02-19T09:15:58.690Z,69.67
2023-02-19T09:18:31.292Z,69.58
2023-02-19T09:21:04.710Z,69.45
2023-02-19T09:23:37.093Z,69.42
2023-02-19T09:26:07.937Z,69.33
2023-02-19T09:28:35.294Z,69.42
2023-02-19T09:31:11.399Z,69.32
2023-02-19T09:33:43.436Z,69.22
2023-02-19T09:36:10.799Z,68.91
2023-02-19T09:38:37.575Z,68.83
2023-02-19T09:41:13.965Z,68.77
2023-02-19T09:43:41.820Z,69.07
2023-02-19T09:46:48.849Z,68.78
2023-02-19T09:49:25.950Z,68.93
2023-02-19T09:52:25.374Z,68.76
2023-02-19T09:54:57.705Z,68.71
2023-02-19T09:57:27.502Z,68.18
2023-02-19T10:00:03.078Z,67.97
2023-02-19T10:02:31.651Z,68.08
2023-02-19T10:04:59.240Z,67.72
2023-02-19T10:07:41.708Z,67.71
2023-02-19T10:10:15.311Z,67.74
2023-02-19T10:12:52.861Z,67.86
2023-02-19T10:15:31.053Z,67.91
2023-02-19T10:17:58.113Z,67.65
2023-02-19T10:20:27.949Z,67.64
2023-02-19T10:23:06.102Z,67.70
2023-02-19T10:25:34.750Z,67.50
2023-02-19T10:28:02.390Z,67.67
2023-02-19T10:30:33.363Z,67.73
2023-02-19T10:33:19.422Z,67.53
2023-02-19T10:35:55.710Z,67.72
2023-02-19T10:38:28.340Z,67.37
2023-02-19T10:41:04.501Z,67.29
2023-02-19T10:43:37.007Z,67.34
2023-02-19T10:46:16.613Z,67.17
2023-02-19T10:49:06.201Z,67.07
2023-02-19T10:51:38.262Z,66.91
2023-02-19T10:54:17.070Z,66.55
2023-02-19T10:56:43.998Z,66.57
2023-02-19T10:59:22.958Z,66.71
2023-02-19T11:01:58.767Z,66.78
2023-02-19T11:04:30.051Z,66.58
2023-02-19T11:06:57.810Z,66.69
2023-02-19T11:09:37.740Z,66.49
2023-02-19T11:12:06.165Z,66.34
2023-02-19T11:14:34.642Z,66.27
2023-02-19T11:17:06.805Z,65.75
2023-02-19T11:19:39.073Z,65.58
2023-02-19T11:22:24.786Z,65.94
2023-02-19T11:24:56.697Z,66.34
2023-02-19T11:27:25.505Z,65.77
2023-02-19T11:29:52.635Z,65.48
2023-02-19T11:32:25.869Z,65.20
2023-02-19T11:35:25.049Z,65.51
2023-02-19T11:38:02.315Z,65.67
2023-02-19T11:40:59.426Z,65.46
2023-02-19T11:44:03.808Z,65.67
2023-02-19T11:46:45.975Z,65.37
2023-02-19T11:49:47.985Z,65.42
2023-02-19T11:52:17.884Z,65.41
2023-02-19T11:54:51.155Z,65.36
2023-02-19T11:57:32.075Z,65.33
2023-02-19T12:00:21.429Z,65.38
2023-02-19T12:03:15.759Z,65.44
2023-02-19T12:06:03.850Z,65.20
2023-02-19T12:08:48.379Z,65.26
2023-02-19T12:11:40.331Z,64.99
2023-02-19T12:14:26.350Z,65.08
2023-02-19T12:17:02.125Z,65.23
2023-02-19T12:19:44.650Z,65.29
2023-02-19T12:22:20.259Z,65.02
2023-02-19T12:24:57.340Z,65.33
2023-02-19T12:27:52.397Z,65.02
2023-02-19T12:30:46.560Z,65.06
2023-02-19T12:33:44.391Z,64.91
2023-02-19T12:36:42.112Z,64.78
2023-02-19T12:39:25.980Z,64.55
2023-02-19T12:42:14.721Z,64.72
2023-02-19T12:45:05.058Z,64.72
2023-02-19T12:47:38.335Z,64.70
